createdAt,value
2023-04-08T00:00:55.796Z,9.72
2023-04-08T00:03:25.103Z,9.75
2023-04-08T00:05:53.995Z,9.74
2023-04-08T00:08:24.514Z,9.69
2023-04-08T00:10:52.999Z,9.68
2023-04-08T00:13:21.680Z,9.69
2023-04-08T00:15:49.957Z,9.69
2023-04-08T00:18:18.672Z,9.70
2023-04-08T00:20:47.326Z,9.67
2023-04-08T00:23:15.908Z,9.58
2023-04-08T00:25:44.391Z,9.48
2023-04-08T00:28:14.953Z,9.38
2023-04-08T00:30:43.773Z,9.28
2023-04-08T00:33:12.308Z,9.22
2023-04-08T00:35:42.057Z,9.18
2023-04-08T00:38:10.714Z,9.13
2023-04-08T00:40:39.678Z,9.13
2023-04-08T00:43:08.465Z,9.15
2023-04-08T00:45:42.273Z,9.16
2023-04-08T00:48:11.268Z,9.16
2023-04-08T00:50:39.807Z,9.14
2023-04-08T00:53:28.221Z,9.15
2023-04-08T00:55:57.010Z,9.12
2023-04-08T00:58:26.083Z,9.14
2023-04-08T01:01:22.750Z,9.14
2023-04-08T01:03:58.749Z,9.11
2023-04-08T01:06:31.967Z,9.13
2023-04-08T01:09:00.356Z,9.10
2023-04-08T01:11:28.522Z,9.13
2023-04-08T01:13:57.108Z,9.24
2023-04-08T01:16:29.119Z,9.26
2023-04-08T01:18:57.472Z,9.30
2023-04-08T01:21:25.827Z,9.33
2023-04-08T01:24:10.185Z,9.31
2023-04-08T01:26:38.653Z,9.27
2023-04-08T01:29:07.155Z,9.18
2023-04-08T01:31:35.938Z,9.14
2023-04-08T01:34:05.032Z,9.14
2023-04-08T01:36:33.408Z,9.13
2023-04-08T01:39:02.189Z,9.23
2023-04-08T01:41:30.668Z,9.33
2023-04-08T01:44:04.581Z,9.36
2023-04-08T01:46:34.002Z,9.30
2023-04-08T01:49:04.105Z,9.22
2023-04-08T01:51:36.672Z,9.16
2023-04-08T01:54:06.127Z,9.16
2023-04-08T01:56:36.754Z,9.15
2023-04-08T01:59:07.239Z,9.11
2023-04-08T02:01:35.804Z,9.13
2023-04-08T02:04:05.051Z,9.13
2023-04-08T02:06:34.218Z,9.17
2023-04-08T02:09:03.133Z,9.22
2023-04-08T02:11:31.897Z,9.22
2023-04-08T02:14:00.690Z,9.15
2023-04-08T02:16:48.643Z,9.08
2023-04-08T02:19:29.805Z,9.09
2023-04-08T02:22:00.023Z,9.11
2023-04-08T02:24:28.773Z,9.11
2023-04-08T02:26:57.296Z,9.14
2023-04-08T02:29:26.387Z,9.13
2023-04-08T02:32:01.802Z,9.13
2023-04-08T02:34:31.238Z,9.16
2023-04-08T02:36:59.608Z,9.21
2023-04-08T02:39:32.911Z,9.24
2023-04-08T02:42:01.309Z,9.25
2023-04-08T02:44:29.665Z,9.26
2023-04-08T02:47:01.420Z,9.24
2023-04-08T02:49:30.825Z,9.24
2023-04-08T02:52:06.164Z,9.31
2023-04-08T02:54:37.037Z,9.39
2023-04-08T02:57:05.683Z,9.39
2023-04-08T02:59:41.455Z,9.39
2023-04-08T03:02:10.666Z,9.40
2023-04-08T03:04:39.315Z,9.43
2023-04-08T03:07:08.748Z,9.41
2023-04-08T03:09:44.799Z,9.36
2023-04-08T03:12:14.495Z,9.35
2023-04-08T03:14:42.782Z,9.39
2023-04-08T03:17:11.342Z,9.42
2023-04-08T03:19:40.134Z,9.43
2023-04-08T03:22:10.004Z,9.43
2023-04-08T03:24:39.251Z,9.43
2023-04-08T03:27:08.681Z,9.40
2023-04-08T03:29:37.037Z,9.36
2023-04-08T03:32:06.547Z,9.34
2023-04-08T03:34:35.829Z,9.35
2023-04-08T03:37:04.229Z,9.38
2023-04-08T03:39:33.512Z,9.39
2023-04-08T03:42:03.320Z,9.38
2023-04-08T03:44:31.724Z,9.30
2023-04-08T03:47:00.298Z,9.24
2023-04-08T03:49:28.864Z,9.15
2023-04-08T03:51:57.246Z,9.06
2023-04-08T03:54:25.722Z,9.03
2023-04-08T03:56:54.305Z,8.95
2023-04-08T03:59:23.717Z,8.89
2023-04-08T04:01:53.976Z,8.86
2023-04-08T04:04:22.564Z,8.89
2023-04-08T04:06:52.222Z,9.01
2023-04-08T04:09:21.384Z,9.15
2023-04-08T04:11:49.800Z,9.25
2023-04-08T04:14:19.103Z,9.21
2023-04-08T04:16:47.779Z,9.19
2023-04-08T04:19:18.001Z,9.22
2023-04-08T04:21:51.805Z,9.36
2023-04-08T04:24:20.496Z,9.35
2023-04-08T04:26:49.075Z,9.33
2023-04-08T04:29:17.457Z,9.34
2023-04-08T04:31:47.171Z,9.41
2023-04-08T04:34:18.106Z,9.45
2023-04-08T04:36:46.892Z,9.58
2023-04-08T04:39:16.500Z,9.78
2023-04-08T04:41:46.212Z,9.96
2023-04-08T04:44:15.354Z,10.20
2023-04-08T04:46:43.721Z,10.40
2023-04-08T04:49:12.570Z,10.51
2023-04-08T04:51:41.184Z,10.68
2023-04-08T04:54:09.643Z,11.01
2023-04-08T04:56:40.928Z,11.36
2023-04-08T04:59:16.694Z,11.68
2023-04-08T05:01:45.783Z,11.92
2023-04-08T05:04:14.243Z,12.17
2023-04-08T05:06:42.718Z,12.30
2023-04-08T05:09:11.789Z,12.33
2023-04-08T05:11:40.168Z,12.35
2023-04-08T05:14:13.874Z,12.35
2023-04-08T05:16:43.790Z,12.28
2023-04-08T05:19:12.267Z,12.26
2023-04-08T05:21:40.754Z,12.30
2023-04-08T05:24:09.128Z,12.41
2023-04-08T05:26:37.946Z,12.49
2023-04-08T05:29:08.107Z,12.55
2023-04-08T05:31:38.996Z,12.58
2023-04-08T05:34:07.455Z,12.75
2023-04-08T05:36:35.936Z,12.97
2023-04-08T05:39:06.261Z,13.16
2023-04-08T05:41:38.017Z,13.39
2023-04-08T05:44:06.609Z,13.64
2023-04-08T05:46:36.283Z,13.89
2023-04-08T05:49:04.896Z,14.33
2023-04-08T05:51:36.347Z,14.75
2023-04-08T05:54:04.927Z,15.04
2023-04-08T05:56:37.411Z,15.16
2023-04-08T05:59:06.605Z,15.25
2023-04-08T06:01:35.065Z,15.33
2023-04-08T06:04:03.777Z,15.38
2023-04-08T06:06:32.649Z,15.44
2023-04-08T06:09:01.007Z,15.53
2023-04-08T06:11:34.932Z,15.70
2023-04-08T06:14:03.639Z,15.91
2023-04-08T06:16:32.513Z,16.26
2023-04-08T06:19:01.568Z,16.60
2023-04-08T06:21:30.565Z,16.94
2023-04-08T06:23:59.078Z,17.30
2023-04-08T06:26:28.236Z,17.54
2023-04-08T06:28:56.481Z,17.49
2023-04-08T06:31:25.319Z,17.63
2023-04-08T06:33:56.280Z,17.97
2023-04-08T06:36:26.090Z,18.43
2023-04-08T06:38:55.385Z,19.01
2023-04-08T06:41:23.976Z,19.55
2023-04-08T06:43:52.349Z,19.86
2023-04-08T06:46:21.166Z,20.17
2023-04-08T06:48:49.753Z,20.35
2023-04-08T06:51:19.397Z,20.56
2023-04-08T06:53:48.531Z,20.58
2023-04-08T06:56:17.052Z,20.61
2023-04-08T06:58:46.512Z,20.76
2023-04-08T07:01:16.728Z,20.70
2023-04-08T07:03:45.478Z,20.40
2023-04-08T07:06:14.442Z,20.41
2023-04-08T07:08:43.818Z,20.44
2023-04-08T07:11:16.242Z,20.31
2023-04-08T07:13:44.571Z,20.08
2023-04-08T07:16:15.710Z,19.73
2023-04-08T07:18:48.383Z,19.37
2023-04-08T07:21:17.183Z,19.03
2023-04-08T07:23:46.582Z,18.68
2023-04-08T07:26:15.064Z,18.30
2023-04-08T07:28:48.923Z,17.90
2023-04-08T07:31:18.212Z,17.70
2023-04-08T07:33:46.724Z,17.53
2023-04-08T07:36:18.711Z,17.40
2023-04-08T07:38:47.633Z,17.33
2023-04-08T07:41:19.587Z,17.26
2023-04-08T07:43:47.957Z,17.15
2023-04-08T07:46:16.445Z,17.06
2023-04-08T07:48:45.351Z,16.81
2023-04-08T07:51:15.039Z,16.57
2023-04-08T07:53:43.401Z,16.44
2023-04-08T07:56:15.365Z,16.35
2023-04-08T07:58:43.881Z,16.27
2023-04-08T08:01:20.328Z,16.14
2023-04-08T08:03:51.280Z,15.98
2023-04-08T08:06:20.063Z,15.85
2023-04-08T08:08:48.545Z,15.76
2023-04-08T08:11:17.002Z,15.65
2023-04-08T08:13:53.473Z,15.62
2023-04-08T08:16:28.245Z,15.67
2023-04-08T08:18:56.780Z,15.87
2023-04-08T08:21:27.514Z,16.04
2023-04-08T08:23:57.145Z,16.18
2023-04-08T08:26:25.703Z,16.32
2023-04-08T08:28:58.592Z,16.44
2023-04-08T08:31:27.531Z,16.46
2023-04-08T08:33:56.285Z,16.46
2023-04-08T08:36:28.949Z,16.43
2023-04-08T08:38:57.532Z,16.36
2023-04-08T08:41:26.058Z,16.30
2023-04-08T08:43:54.497Z,16.23
2023-04-08T08:46:23.110Z,16.15
2023-04-08T08:48:51.633Z,16.07
2023-04-08T08:51:20.168Z,16.08
2023-04-08T08:53:51.312Z,16.09
2023-04-08T08:56:20.269Z,16.25
2023-04-08T08:58:49.371Z,16.46
2023-04-08T09:01:44.211Z,16.61
2023-04-08T09:04:23.264Z,16.67
2023-04-08T09:07:11.371Z,16.62
2023-04-08T09:09:58.453Z,16.55
2023-04-08T09:12:31.649Z,16.52
2023-04-08T09:15:05.146Z,16.51
2023-04-08T09:17:34.487Z,16.47
2023-04-08T09:20:12.478Z,16.49
2023-04-08T09:22:59.676Z,16.49
2023-04-08T09:25:32.824Z,16.45
2023-04-08T09:28:03.176Z,16.37
2023-04-08T09:30:32.551Z,16.32
2023-04-08T09:33:07.626Z,16.35
2023-04-08T09:35:36.774Z,16.37
2023-04-08T09:38:05.332Z,16.40
2023-04-08T09:40:39.007Z,16.40
2023-04-08T09:43:07.689Z,16.40
2023-04-08T09:45:36.304Z,16.40
2023-04-08T09:48:19.115Z,16.39
2023-04-08T09:50:50.876Z,16.38
2023-04-08T09:53:34.904Z,16.40
2023-04-08T09:56:03.375Z,16.43
2023-04-08T09:58:57.566Z,16.42
2023-04-08T10:01:29.036Z,16.38
2023-04-08T10:03:57.746Z,16.35
2023-04-08T10:06:28.883Z,16.35
2023-04-08T10:08:57.124Z,16.38
2023-04-08T10:11:25.493Z,16.42
2023-04-08T10:13:56.909Z,16.44
2023-04-08T10:16:27.776Z,16.42
2023-04-08T10:18:56.995Z,16.41
2023-04-08T10:21:32.986Z,16.43
2023-04-08T10:24:06.256Z,16.49
2023-04-08T10:26:39.320Z,16.54
2023-04-08T10:29:21.638Z,16.54
2023-04-08T10:31:53.404Z,16.60
2023-04-08T10:34:24.805Z,16.65
2023-04-08T10:36:53.616Z,16.71
2023-04-08T10:39:27.628Z,16.74
2023-04-08T10:41:56.737Z,16.75
2023-04-08T10:44:25.537Z,16.77
2023-04-08T10:46:54.299Z,16.80
2023-04-08T10:49:22.929Z,16.84
2023-04-08T10:51:56.893Z,16.90
2023-04-08T10:54:25.370Z,16.94
2023-04-08T10:56:54.975Z,16.95
2023-04-08T10:59:29.642Z,16.93
2023-04-08T11:01:58.722Z,16.92
2023-04-08T11:04:27.591Z,16.88
2023-04-08T11:06:56.658Z,16.86
2023-04-08T11:09:25.189Z,16.78
2023-04-08T11:11:53.874Z,16.71
2023-04-08T11:14:24.073Z,16.65
2023-04-08T11:16:52.661Z,16.60
2023-04-08T11:19:21.676Z,16.55
2023-04-08T11:21:51.510Z,16.52
2023-04-08T11:24:19.907Z,16.49
2023-04-08T11:26:48.221Z,16.46
2023-04-08T11:29:17.112Z,16.43
2023-04-08T11:31:45.498Z,16.40
2023-04-08T11:34:13.762Z,16.38
2023-04-08T11:36:42.672Z,16.35
2023-04-08T11:39:12.324Z,16.33
2023-04-08T11:41:41.696Z,16.30
2023-04-08T11:44:10.342Z,16.27
2023-04-08T11:46:41.160Z,16.23
2023-04-08T11:49:10.592Z,16.19
2023-04-08T11:51:55.229Z,16.15
2023-04-08T11:54:30.386Z,16.11
2023-04-08T11:56:59.273Z,16.07
2023-04-08T11:59:29.490Z,16.06
2023-04-08T12:01:59.420Z,16.02
2023-04-08T12:04:28.305Z,15.98
2023-04-08T12:06:58.305Z,15.94
2023-04-08T12:09:28.634Z,15.89
2023-04-08T12:11:58.288Z,15.87
2023-04-08T12:14:28.422Z,15.82
2023-04-08T12:16:57.254Z,15.75
2023-04-08T12:19:34.477Z,15.45
2023-04-08T12:22:04.352Z,15.04
2023-04-08T12:24:32.839Z,14.77
2023-04-08T12:27:02.856Z,14.59
2023-04-08T12:29:32.764Z,14.43
2023-04-08T12:32:03.194Z,14.33
2023-04-08T12:34:32.965Z,14.25
2023-04-08T12:37:01.284Z,14.20
2023-04-08T12:39:33.575Z,14.19
2023-04-08T12:42:02.153Z,14.18
2023-04-08T12:44:31.130Z,14.15
2023-04-08T12:46:59.836Z,14.14
2023-04-08T12:49:28.309Z,14.15
2023-04-08T12:51:56.797Z,14.13
2023-04-08T12:54:26.076Z,14.15
2023-04-08T12:56:54.268Z,14.19
2023-04-08T12:59:23.658Z,14.26
2023-04-08T13:01:52.077Z,14.33
2023-04-08T13:04:20.722Z,14.38
2023-04-08T13:06:49.222Z,14.43
2023-04-08T13:09:18.717Z,14.46
2023-04-08T13:11:47.598Z,14.51
2023-04-08T13:14:18.555Z,14.58
2023-04-08T13:16:47.172Z,14.64
2023-04-08T13:19:16.727Z,14.72
2023-04-08T13:21:46.242Z,14.81
2023-04-08T13:24:14.725Z,14.87
2023-04-08T13:26:43.704Z,14.92
2023-04-08T13:29:14.436Z,14.96
2023-04-08T13:31:45.839Z,14.98
2023-04-08T13:34:14.282Z,15.01
2023-04-08T13:36:42.850Z,15.03
2023-04-08T13:39:11.839Z,15.04
2023-04-08T13:41:40.728Z,15.05
2023-04-08T13:44:09.414Z,15.08
2023-04-08T13:46:37.690Z,15.10
2023-04-08T13:49:06.519Z,15.10
2023-04-08T13:51:35.672Z,15.14
2023-04-08T13:54:08.863Z,15.20
2023-04-08T13:56:38.368Z,15.26
2023-04-08T13:59:07.539Z,15.32
2023-04-08T14:01:36.541Z,15.36
2023-04-08T14:04:05.579Z,15.40
2023-04-08T14:06:35.161Z,15.43
2023-04-08T14:09:04.316Z,15.45
2023-04-08T14:11:33.179Z,15.46
2023-04-08T14:14:01.331Z,15.47
2023-04-08T14:16:32.068Z,15.47
2023-04-08T14:19:00.851Z,15.48
2023-04-08T14:21:29.219Z,15.47
2023-04-08T14:23:58.004Z,15.45
2023-04-08T14:26:26.792Z,15.44
2023-04-08T14:29:01.730Z,15.41
2023-04-08T14:31:30.026Z,15.38
2023-04-08T14:33:59.092Z,15.36
2023-04-08T14:36:28.320Z,15.34
2023-04-08T14:38:56.898Z,15.31
2023-04-08T14:41:27.414Z,15.29
2023-04-08T14:43:55.887Z,15.27
2023-04-08T14:46:28.571Z,15.25
2023-04-08T14:48:59.310Z,15.23
2023-04-08T14:51:27.784Z,15.21
2023-04-08T14:53:57.797Z,15.18
2023-04-08T14:56:26.732Z,15.17
2023-04-08T14:58:56.304Z,15.15
2023-04-08T15:01:25.012Z,15.12
2023-04-08T15:03:53.888Z,15.10
2023-04-08T15:06:23.384Z,15.08
2023-04-08T15:08:53.950Z,15.06
2023-04-08T15:11:22.489Z,15.02
2023-04-08T15:13:59.568Z,15.00
2023-04-08T15:16:28.386Z,14.98
2023-04-08T15:18:59.934Z,14.94
2023-04-08T15:21:28.945Z,14.91
2023-04-08T15:23:57.626Z,14.87
2023-04-08T15:26:27.751Z,14.83
2023-04-08T15:28:59.179Z,14.78
2023-04-08T15:31:27.973Z,14.72
2023-04-08T15:33:56.730Z,14.67
2023-04-08T15:36:25.646Z,14.63
2023-04-08T15:38:55.455Z,14.58
2023-04-08T15:41:26.485Z,14.54
2023-04-08T15:43:54.756Z,14.50
2023-04-08T15:46:26.676Z,14.47
2023-04-08T15:48:55.611Z,14.43
2023-04-08T15:51:23.981Z,14.38
2023-04-08T15:53:53.077Z,14.34
2023-04-08T15:56:24.383Z,14.28
2023-04-08T15:58:53.319Z,14.20
2023-04-08T16:01:24.996Z,14.15
2023-04-08T16:03:58.008Z,14.09
2023-04-08T16:06:26.885Z,14.04
2023-04-08T16:08:55.755Z,14.00
2023-04-08T16:11:25.451Z,13.95
2023-04-08T16:13:54.040Z,13.91
2023-04-08T16:16:22.753Z,13.88
2023-04-08T16:18:52.963Z,13.85
2023-04-08T16:21:21.622Z,13.81
2023-04-08T16:23:50.807Z,13.78
2023-04-08T16:26:21.973Z,13.76
2023-04-08T16:28:51.213Z,13.73
2023-04-08T16:31:20.173Z,13.71
2023-04-08T16:33:49.952Z,13.70
2023-04-08T16:36:19.411Z,13.67
2023-04-08T16:38:48.478Z,13.66
2023-04-08T16:41:16.906Z,13.64
2023-04-08T16:43:45.543Z,13.63
2023-04-08T16:46:17.699Z,13.60
2023-04-08T16:48:46.790Z,13.58
2023-04-08T16:51:15.274Z,13.56
2023-04-08T16:53:43.761Z,13.54
2023-04-08T16:56:16.540Z,13.51
2023-04-08T16:58:45.838Z,13.48
2023-04-08T17:01:21.346Z,13.46
2023-04-08T17:03:52.502Z,13.42
2023-04-08T17:06:21.130Z,13.39
2023-04-08T17:08:54.836Z,13.35
2023-04-08T17:11:23.935Z,13.33
2023-04-08T17:13:52.989Z,13.34
2023-04-08T17:16:23.256Z,13.35
2023-04-08T17:18:52.504Z,13.35
2023-04-08T17:21:21.008Z,13.34
2023-04-08T17:23:52.325Z,13.32
2023-04-08T17:26:25.034Z,13.28
2023-04-08T17:28:53.833Z,13.24
2023-04-08T17:31:22.906Z,13.21
2023-04-08T17:33:51.699Z,13.19
2023-04-08T17:36:20.412Z,13.17
2023-04-08T17:38:50.104Z,13.14
2023-04-08T17:41:38.320Z,13.09
2023-04-08T17:44:12.154Z,13.05
2023-04-08T17:46:42.067Z,13.04
2023-04-08T17:49:14.560Z,13.04
2023-04-08T17:51:43.127Z,13.04
2023-04-08T17:54:11.914Z,13.06
2023-04-08T17:56:46.190Z,13.08
2023-04-08T17:59:17.069Z,13.09
2023-04-08T18:01:47.024Z,13.07
2023-04-08T18:04:18.996Z,13.04
2023-04-08T18:06:48.038Z,13.01
2023-04-08T18:09:19.590Z,12.95
2023-04-08T18:11:49.506Z,12.87
2023-04-08T18:14:18.396Z,12.80
2023-04-08T18:16:53.858Z,12.74
2023-04-08T18:19:25.100Z,12.70
2023-04-08T18:21:53.797Z,12.66
2023-04-08T18:24:22.396Z,12.62
2023-04-08T18:27:01.465Z,12.58
2023-04-08T18:29:33.462Z,12.51
2023-04-08T18:32:02.349Z,12.46
2023-04-08T18:34:32.354Z,12.41
2023-04-08T18:37:04.660Z,12.35
2023-04-08T18:39:33.203Z,12.26
2023-04-08T18:42:03.224Z,12.20
2023-04-08T18:44:31.984Z,12.13
2023-04-08T18:47:02.951Z,12.07
2023-04-08T18:49:33.927Z,12.00
2023-04-08T18:52:03.508Z,11.96
2023-04-08T18:54:32.913Z,11.92
2023-04-08T18:57:03.178Z,11.92
2023-04-08T18:59:33.081Z,11.93
2023-04-08T19:02:02.766Z,11.94
2023-04-08T19:04:33.738Z,11.93
2023-04-08T19:07:02.611Z,11.90
2023-04-08T19:09:31.284Z,11.88
2023-04-08T19:12:00.877Z,11.86
2023-04-08T19:14:29.962Z,11.83
2023-04-08T19:17:03.104Z,11.79
2023-04-08T19:19:33.239Z,11.75
2023-04-08T19:22:03.223Z,11.69
2023-04-08T19:24:34.054Z,11.66
2023-04-08T19:27:02.441Z,11.68
2023-04-08T19:29:33.649Z,11.71
2023-04-08T19:32:05.355Z,11.71
2023-04-08T19:34:38.738Z,11.65
2023-04-08T19:37:08.817Z,11.61
2023-04-08T19:39:38.313Z,11.50
2023-04-08T19:42:12.604Z,11.43
2023-04-08T19:44:41.217Z,11.38
2023-04-08T19:47:10.016Z,11.30
2023-04-08T19:49:40.651Z,11.26
2023-04-08T19:52:09.421Z,11.21
2023-04-08T19:54:41.848Z,11.19
2023-04-08T19:57:11.060Z,11.18
2023-04-08T19:59:39.572Z,11.24
2023-04-08T20:02:08.350Z,11.32
2023-04-08T20:04:39.029Z,11.41
2023-04-08T20:07:07.490Z,11.45
2023-04-08T20:09:38.821Z,11.48
2023-04-08T20:12:07.624Z,11.48
2023-04-08T20:14:42.241Z,11.40
2023-04-08T20:17:10.619Z,11.34
2023-04-08T20:19:42.343Z,11.31
2023-04-08T20:22:11.470Z,11.28
2023-04-08T20:24:39.761Z,11.21
2023-04-08T20:27:11.533Z,11.10
2023-04-08T20:29:42.240Z,11.06
2023-04-08T20:32:11.037Z,11.00
2023-04-08T20:34:39.611Z,10.98
2023-04-08T20:37:08.732Z,11.12
2023-04-08T20:39:37.186Z,11.23
2023-04-08T20:42:06.792Z,11.27
2023-04-08T20:44:35.892Z,11.26
2023-04-08T20:47:05.425Z,11.24
2023-04-08T20:49:35.326Z,11.20
2023-04-08T20:52:06.760Z,11.15
2023-04-08T20:54:38.720Z,11.09
2023-04-08T20:57:07.096Z,11.05
2023-04-08T20:59:35.792Z,11.04
2023-04-08T21:02:04.253Z,11.06
2023-04-08T21:04:32.846Z,11.09
2023-04-08T21:07:02.045Z,11.10
2023-04-08T21:09:31.101Z,11.09
2023-04-08T21:11:59.414Z,11.07
2023-04-08T21:14:31.438Z,11.03
2023-04-08T21:17:00.267Z,11.01
2023-04-08T21:19:28.780Z,11.03
2023-04-08T21:21:59.482Z,11.04
2023-04-08T21:24:28.552Z,11.03
2023-04-08T21:26:57.777Z,11.00
2023-04-08T21:29:26.353Z,10.96
2023-04-08T21:31:54.996Z,10.92
2023-04-08T21:34:23.523Z,10.88
2023-04-08T21:36:52.313Z,10.86
2023-04-08T21:39:20.583Z,10.86
2023-04-08T21:41:49.592Z,10.85
2023-04-08T21:44:17.906Z,10.83
2023-04-08T21:46:46.269Z,10.80
2023-04-08T21:49:14.632Z,10.79
2023-04-08T21:51:45.353Z,10.79
2023-04-08T21:54:13.732Z,10.80
2023-04-08T21:56:43.769Z,10.81
2023-04-08T21:59:12.048Z,10.80
2023-04-08T22:01:40.834Z,10.77
2023-04-08T22:04:09.525Z,10.74
2023-04-08T22:06:38.996Z,10.70
2023-04-08T22:09:09.958Z,10.68
2023-04-08T22:11:39.235Z,10.67
2023-04-08T22:14:07.508Z,10.66
2023-04-08T22:16:37.132Z,10.65
2023-04-08T22:19:06.422Z,10.62
2023-04-08T22:21:37.457Z,10.60
2023-04-08T22:24:06.885Z,10.59
2023-04-08T22:26:35.544Z,10.61
2023-04-08T22:29:07.631Z,10.64
2023-04-08T22:31:36.502Z,10.69
2023-04-08T22:34:05.911Z,10.72
2023-04-08T22:36:34.589Z,10.74
2023-04-08T22:39:04.208Z,10.73
2023-04-08T22:41:32.473Z,10.71
2023-04-08T22:44:01.369Z,10.72
2023-04-08T22:46:29.795Z,10.74
2023-04-08T22:48:59.041Z,10.77
2023-04-08T22:51:31.179Z,10.79
2023-04-08T22:53:59.898Z,10.80
2023-04-08T22:56:29.008Z,10.78
2023-04-08T22:58:57.268Z,10.76
2023-04-08T23:01:26.180Z,10.72
2023-04-08T23:03:55.798Z,10.69
2023-04-08T23:06:28.990Z,10.66
2023-04-08T23:08:58.560Z,10.65
2023-04-08T23:11:27.620Z,10.70
2023-04-08T23:13:56.384Z,10.69
2023-04-08T23:16:25.181Z,10.69
2023-04-08T23:18:53.929Z,10.66
2023-04-08T23:21:26.470Z,10.64
2023-04-08T23:23:54.878Z,10.63
2023-04-08T23:26:23.455Z,10.61
2023-04-08T23:28:55.010Z,10.60
2023-04-08T23:31:23.721Z,10.62
2023-04-08T23:33:53.318Z,10.66
2023-04-08T23:36:23.279Z,10.72
2023-04-08T23:38:52.983Z,10.74
2023-04-08T23:41:21.814Z,10.74
2023-04-08T23:43:54.291Z,10.71
2023-04-08T23:46:23.222Z,10.68
2023-04-08T23:48:57.505Z,10.68
2023-04-08T23:51:27.005Z,10.67
2023-04-08T23:53:55.297Z,10.68
2023-04-08T23:56:25.196Z,10.73
2023-04-08T23:58:53.712Z,10.74
